createdAt,value
2022-11-01T00:01:50.131Z,14.12
2022-11-01T00:04:17.089Z,14.14
2022-11-01T00:06:43.569Z,14.13
2022-11-01T00:09:09.953Z,14.10
2022-11-01T00:11:36.557Z,14.19
2022-11-01T00:14:03.005Z,14.23
2022-11-01T00:16:29.392Z,14.20
2022-11-01T00:18:56.082Z,14.42
2022-11-01T00:21:22.688Z,14.54
2022-11-01T00:23:49.258Z,14.62
2022-11-01T00:26:19.406Z,14.51
2022-11-01T00:28:46.299Z,14.52
2022-11-01T00:31:14.661Z,14.63
2022-11-01T00:33:41.050Z,14.53
2022-11-01T00:36:08.655Z,14.55
2022-11-01T00:38:35.729Z,14.47
2022-11-01T00:41:03.892Z,14.51
2022-11-01T00:43:34.342Z,14.60
2022-11-01T00:46:01.267Z,14.51
2022-11-01T00:48:28.154Z,14.54
2022-11-01T00:50:54.757Z,14.58
2022-11-01T00:53:21.446Z,14.44
2022-11-01T00:55:47.859Z,14.43
2022-11-01T00:58:14.343Z,14.32
2022-11-01T01:00:40.762Z,14.39
2022-11-01T01:03:07.377Z,14.33
2022-11-01T01:05:35.261Z,14.40
2022-11-01T01:08:02.343Z,14.48
2022-11-01T01:10:28.746Z,14.50
2022-11-01T01:12:55.149Z,14.17
2022-11-01T01:15:21.544Z,14.17
2022-11-01T01:17:47.927Z,14.32
2022-11-01T01:20:14.524Z,14.33
2022-11-01T01:22:41.722Z,14.32
2022-11-01T01:25:09.454Z,14.14
2022-11-01T01:27:36.253Z,14.30
2022-11-01T01:30:03.910Z,14.34
2022-11-01T01:32:30.752Z,14.29
2022-11-01T01:34:57.145Z,14.26
2022-11-01T01:37:23.554Z,13.97
2022-11-01T01:39:49.965Z,13.98
2022-11-01T01:42:24.060Z,13.76
2022-11-01T01:44:56.425Z,13.81
2022-11-01T01:47:26.114Z,13.57
2022-11-01T01:50:00.334Z,13.65
2022-11-01T01:52:30.413Z,13.69
2022-11-01T01:54:59.058Z,13.66
2022-11-01T01:57:26.235Z,13.57
2022-11-01T01:59:52.727Z,13.60
2022-11-01T02:02:20.476Z,13.62
2022-11-01T02:04:57.960Z,13.74
2022-11-01T02:07:25.168Z,13.63
2022-11-01T02:09:52.871Z,13.48
2022-11-01T02:12:19.289Z,13.34
2022-11-01T02:14:46.040Z,13.29
2022-11-01T02:17:43.498Z,13.46
2022-11-01T02:20:37.150Z,13.49
2022-11-01T02:23:13.245Z,13.46
2022-11-01T02:26:04.341Z,13.48
2022-11-01T02:28:50.249Z,13.52
2022-11-01T02:31:41.552Z,13.58
2022-11-01T02:34:24.544Z,13.40
2022-11-01T02:37:00.452Z,13.49
2022-11-01T02:39:32.618Z,13.63
2022-11-01T02:42:09.772Z,13.66
2022-11-01T02:44:41.841Z,13.63
2022-11-01T02:47:11.790Z,13.58
2022-11-01T02:49:41.465Z,13.48
2022-11-01T02:52:11.768Z,13.53
2022-11-01T02:54:49.324Z,13.43
2022-11-01T02:57:36.268Z,13.38
2022-11-01T03:00:24.524Z,13.38
2022-11-01T03:02:58.174Z,13.36
2022-11-01T03:05:39.247Z,13.32
2022-11-01T03:08:14.249Z,13.45
2022-11-01T03:10:57.241Z,13.33
2022-11-01T03:13:32.415Z,13.34
2022-11-01T03:16:20.768Z,13.33
2022-11-01T03:18:59.439Z,13.35
2022-11-01T03:21:28.212Z,13.26
2022-11-01T03:24:03.266Z,13.27
2022-11-01T03:26:34.806Z,13.32
2022-11-01T03:29:06.640Z,13.22
2022-11-01T03:31:36.747Z,13.21
2022-11-01T03:34:11.078Z,13.18
2022-11-01T03:36:51.485Z,13.23
2022-11-01T03:39:22.699Z,13.09
2022-11-01T03:41:53.405Z,13.19
2022-11-01T03:44:20.009Z,13.09
2022-11-01T03:46:47.204Z,12.98
2022-11-01T03:49:18.429Z,12.84
2022-11-01T03:51:44.958Z,12.84
2022-11-01T03:54:11.371Z,12.84
2022-11-01T03:56:40.595Z,13.02
2022-11-01T03:59:08.492Z,13.11
2022-11-01T04:01:35.230Z,13.11
2022-11-01T04:04:01.876Z,13.06
2022-11-01T04:06:28.580Z,13.06
2022-11-01T04:08:55.588Z,13.14
2022-11-01T04:11:22.003Z,13.25
2022-11-01T04:13:48.401Z,13.38
2022-11-01T04:16:53.763Z,13.42
2022-11-01T04:19:39.137Z,13.49
2022-11-01T04:22:05.897Z,13.56
2022-11-01T04:24:32.278Z,13.57
2022-11-01T04:26:58.662Z,13.54
2022-11-01T04:29:25.043Z,13.43
2022-11-01T04:31:51.427Z,13.54
2022-11-01T04:34:37.760Z,13.55
2022-11-01T04:37:04.169Z,13.57
2022-11-01T04:39:30.622Z,13.56
2022-11-01T04:41:57.016Z,13.51
2022-11-01T04:44:23.418Z,13.59
2022-11-01T04:46:49.814Z,13.51
2022-11-01T04:49:16.201Z,13.59
2022-11-01T04:51:42.701Z,13.46
2022-11-01T04:54:09.119Z,13.54
2022-11-01T04:56:35.513Z,13.51
2022-11-01T04:59:01.920Z,13.46
2022-11-01T05:01:28.404Z,13.53
2022-11-01T05:03:55.698Z,13.35
2022-11-01T05:06:22.099Z,13.42
2022-11-01T05:08:48.907Z,13.22
2022-11-01T05:11:15.293Z,13.25
2022-11-01T05:13:41.857Z,13.25
2022-11-01T05:16:19.781Z,13.43
2022-11-01T05:18:46.340Z,13.18
2022-11-01T05:21:12.745Z,13.26
2022-11-01T05:23:39.145Z,13.23
2022-11-01T05:26:05.652Z,13.18
2022-11-01T05:28:32.035Z,13.28
2022-11-01T05:30:58.685Z,13.25
2022-11-01T05:33:25.073Z,13.28
2022-11-01T05:35:51.473Z,13.36
2022-11-01T05:38:17.870Z,13.35
2022-11-01T05:40:44.258Z,13.43
2022-11-01T05:43:10.654Z,13.31
2022-11-01T05:45:37.345Z,13.20
2022-11-01T05:48:04.799Z,13.26
2022-11-01T05:50:31.183Z,13.32
2022-11-01T05:53:07.447Z,13.40
2022-11-01T05:55:34.337Z,13.37
2022-11-01T05:58:00.751Z,13.38
2022-11-01T06:00:27.186Z,13.43
2022-11-01T06:02:53.563Z,13.43
2022-11-01T06:05:19.941Z,13.35
2022-11-01T06:07:46.354Z,13.39
2022-11-01T06:10:12.716Z,13.50
2022-11-01T06:12:39.113Z,13.31
2022-11-01T06:15:05.886Z,13.17
2022-11-01T06:17:32.269Z,13.15
2022-11-01T06:19:58.714Z,13.29
2022-11-01T06:22:25.130Z,13.41
2022-11-01T06:24:51.535Z,13.41
2022-11-01T06:27:17.932Z,13.36
2022-11-01T06:29:44.310Z,13.41
2022-11-01T06:32:10.710Z,13.34
2022-11-01T06:34:40.849Z,13.36
2022-11-01T06:37:10.405Z,13.39
2022-11-01T06:39:36.805Z,13.41
2022-11-01T06:42:03.293Z,13.38
2022-11-01T06:44:29.680Z,13.32
2022-11-01T06:46:56.049Z,13.33
2022-11-01T06:49:22.529Z,13.34
2022-11-01T06:51:49.158Z,13.38
2022-11-01T06:54:15.549Z,13.43
2022-11-01T06:56:41.949Z,13.46
2022-11-01T06:59:08.638Z,13.39
2022-11-01T07:01:35.151Z,13.36
2022-11-01T07:04:01.690Z,13.38
2022-11-01T07:06:30.768Z,13.39
2022-11-01T07:08:59.289Z,13.45
2022-11-01T07:11:30.997Z,13.50
2022-11-01T07:13:59.218Z,13.47
2022-11-01T07:16:26.790Z,13.46
2022-11-01T07:18:53.187Z,13.45
2022-11-01T07:21:19.598Z,13.53
2022-11-01T07:23:46.227Z,13.50
2022-11-01T07:26:12.630Z,13.56
2022-11-01T07:28:39.599Z,13.56
2022-11-01T07:31:06.305Z,13.58
2022-11-01T07:33:32.823Z,13.59
2022-11-01T07:36:01.001Z,13.54
2022-11-01T07:38:27.397Z,13.64
2022-11-01T07:40:54.672Z,13.70
2022-11-01T07:43:21.901Z,13.75
2022-11-01T07:45:48.892Z,13.73
2022-11-01T07:48:17.468Z,13.74
2022-11-01T07:50:44.691Z,13.71
2022-11-01T07:53:16.808Z,13.82
2022-11-01T07:55:44.199Z,13.78
2022-11-01T07:58:12.034Z,13.90
2022-11-01T08:00:39.755Z,13.96
2022-11-01T08:03:09.182Z,13.91
2022-11-01T08:05:36.549Z,13.90
2022-11-01T08:08:03.288Z,13.93
2022-11-01T08:10:30.315Z,13.86
2022-11-01T08:13:02.208Z,13.96
2022-11-01T08:15:28.995Z,13.91
2022-11-01T08:17:57.198Z,13.92
2022-11-01T08:20:25.804Z,14.01
2022-11-01T08:22:53.103Z,13.97
2022-11-01T08:25:19.596Z,13.88
2022-11-01T08:27:46.939Z,14.01
2022-11-01T08:30:14.890Z,14.06
2022-11-01T08:32:41.374Z,14.11
2022-11-01T08:35:08.869Z,14.14
2022-11-01T08:37:35.270Z,14.19
2022-11-01T08:40:03.551Z,14.18
2022-11-01T08:42:29.960Z,14.21
2022-11-01T08:44:56.457Z,14.34
2022-11-01T08:47:22.846Z,14.42
2022-11-01T08:49:49.256Z,14.40
2022-11-01T08:52:15.655Z,14.47
2022-11-01T08:54:42.091Z,14.55
2022-11-01T08:57:08.480Z,14.51
2022-11-01T08:59:34.868Z,14.60
2022-11-01T09:02:01.362Z,14.67
2022-11-01T09:04:27.896Z,14.72
2022-11-01T09:06:54.283Z,14.77
2022-11-01T09:09:20.794Z,14.87
2022-11-01T09:11:47.191Z,14.84
2022-11-01T09:14:13.573Z,14.92
2022-11-01T09:16:40.041Z,14.97
2022-11-01T09:19:06.473Z,14.98
2022-11-01T09:21:32.878Z,15.08
2022-11-01T09:23:59.902Z,15.12
2022-11-01T09:26:27.298Z,15.14
2022-11-01T09:28:58.537Z,15.24
2022-11-01T09:31:25.277Z,15.30
2022-11-01T09:33:54.946Z,15.27
2022-11-01T09:36:21.479Z,15.36
2022-11-01T09:38:47.886Z,15.33
2022-11-01T09:41:37.010Z,15.38
2022-11-01T09:44:06.089Z,15.39
2022-11-01T09:46:42.346Z,15.46
2022-11-01T09:49:12.528Z,15.50
2022-11-01T09:51:41.246Z,15.50
2022-11-01T09:54:10.419Z,15.56
2022-11-01T09:56:45.580Z,15.54
2022-11-01T09:59:44.577Z,15.51
2022-11-01T10:02:39.002Z,15.56
2022-11-01T10:05:40.865Z,15.57
2022-11-01T10:08:21.508Z,15.59
2022-11-01T10:11:14.914Z,15.63
2022-11-01T10:14:20.960Z,15.62
2022-11-01T10:17:14.640Z,15.74
2022-11-01T10:19:48.235Z,15.80
2022-11-01T10:22:32.379Z,15.85
2022-11-01T10:25:07.020Z,15.87
2022-11-01T10:27:42.782Z,15.85
2022-11-01T10:30:18.228Z,15.95
2022-11-01T10:33:02.311Z,15.99
2022-11-01T10:35:44.639Z,16.04
2022-11-01T10:38:41.457Z,16.03
2022-11-01T10:41:21.355Z,16.09
2022-11-01T10:43:54.165Z,16.11
2022-11-01T10:46:27.882Z,16.10
2022-11-01T10:48:59.606Z,16.17
2022-11-01T10:51:29.887Z,16.23
2022-11-01T10:54:01.940Z,16.24
2022-11-01T10:56:35.461Z,16.32
2022-11-01T10:59:08.081Z,16.33
2022-11-01T11:01:44.146Z,16.38
2022-11-01T11:04:22.362Z,16.40
2022-11-01T11:06:49.616Z,16.42
2022-11-01T11:09:28.731Z,16.53
2022-11-01T11:11:59.965Z,16.50
2022-11-01T11:14:28.634Z,16.62
2022-11-01T11:16:56.874Z,16.72
2022-11-01T11:19:29.162Z,16.73
2022-11-01T11:21:56.903Z,16.81
2022-11-01T11:24:36.014Z,16.72
2022-11-01T11:27:10.605Z,16.74
2022-11-01T11:29:48.848Z,16.84
2022-11-01T11:32:19.980Z,16.85
2022-11-01T11:35:08.820Z,16.83
2022-11-01T11:37:38.605Z,16.84
2022-11-01T11:40:26.679Z,16.92
2022-11-01T11:42:56.015Z,16.91
2022-11-01T11:45:29.474Z,16.99
2022-11-01T11:47:58.850Z,17.03
2022-11-01T11:50:34.563Z,16.91
2022-11-01T11:53:20.209Z,16.99
2022-11-01T11:55:48.672Z,17.08
2022-11-01T11:58:20.270Z,16.99
2022-11-01T12:00:50.171Z,16.99
2022-11-01T12:03:17.452Z,16.99
2022-11-01T12:05:59.820Z,17.09
2022-11-01T12:08:44.903Z,17.12
2022-11-01T12:11:12.040Z,17.09
2022-11-01T12:13:42.420Z,17.17
2022-11-01T12:16:17.738Z,17.24
2022-11-01T12:18:50.060Z,17.29
2022-11-01T12:21:34.288Z,17.31
2022-11-01T12:24:23.969Z,17.24
2022-11-01T12:26:53.357Z,17.31
2022-11-01T12:29:33.501Z,17.32
2022-11-01T12:32:16.556Z,17.29
2022-11-01T12:34:48.636Z,17.29
2022-11-01T12:37:23.407Z,17.30
2022-11-01T12:40:02.278Z,17.33
2022-11-01T12:42:35.521Z,17.37
2022-11-01T12:45:12.551Z,17.36
2022-11-01T12:47:44.118Z,17.39
2022-11-01T12:50:28.194Z,17.38
2022-11-01T12:53:10.425Z,17.55
2022-11-01T12:55:41.994Z,17.74
2022-11-01T12:58:16.921Z,17.83
2022-11-01T13:01:16.311Z,17.80
2022-11-01T13:03:57.796Z,17.81
2022-11-01T13:06:59.343Z,17.73
2022-11-01T13:09:54.488Z,17.83
2022-11-01T13:12:41.060Z,17.87
2022-11-01T13:15:25.775Z,17.98
2022-11-01T13:18:09.552Z,18.08
2022-11-01T13:21:13.404Z,18.16
2022-11-01T13:23:46.301Z,18.08
2022-11-01T13:26:25.457Z,18.15
2022-11-01T13:29:17.645Z,18.11
2022-11-01T13:32:02.817Z,18.12
2022-11-01T13:34:55.606Z,18.19
2022-11-01T13:38:12.490Z,18.07
2022-11-01T13:40:56.903Z,18.11
2022-11-01T13:43:30.193Z,18.15
2022-11-01T13:46:19.141Z,18.23
2022-11-01T13:49:10.513Z,18.26
2022-11-01T13:51:42.014Z,18.25
2022-11-01T13:54:22.864Z,18.30
2022-11-01T13:56:57.167Z,18.30
2022-11-01T13:59:47.131Z,18.28
2022-11-01T14:02:34.579Z,18.33
2022-11-01T14:05:12.636Z,18.37
2022-11-01T14:07:45.183Z,18.31
2022-11-01T14:10:31.770Z,18.30
2022-11-01T14:12:59.496Z,18.23
2022-11-01T14:15:28.153Z,18.21
2022-11-01T14:17:57.595Z,18.31
2022-11-01T14:20:31.478Z,18.35
2022-11-01T14:22:58.526Z,18.40
2022-11-01T14:25:30.099Z,18.30
2022-11-01T14:28:16.388Z,18.36
2022-11-01T14:30:46.220Z,18.35
2022-11-01T14:33:15.911Z,18.40
2022-11-01T14:35:47.110Z,18.30
2022-11-01T14:38:20.189Z,18.34
2022-11-01T14:40:59.254Z,18.33
2022-11-01T14:43:35.170Z,18.30
2022-11-01T14:46:04.729Z,18.27
2022-11-01T14:48:55.605Z,18.32
2022-11-01T14:51:30.883Z,18.28
2022-11-01T14:54:04.681Z,18.31
2022-11-01T14:56:38.442Z,18.21
2022-11-01T14:59:24.811Z,18.11
2022-11-01T15:01:58.154Z,18.04
2022-11-01T15:04:32.367Z,18.11
2022-11-01T15:07:00.198Z,18.13
2022-11-01T15:09:28.701Z,18.11
2022-11-01T15:12:03.579Z,18.09
2022-11-01T15:14:38.744Z,17.96
2022-11-01T15:17:07.570Z,17.96
2022-11-01T15:19:37.891Z,17.92
2022-11-01T15:22:06.398Z,17.90
2022-11-01T15:24:34.678Z,17.91
2022-11-01T15:27:07.337Z,17.70
2022-11-01T15:29:33.911Z,17.73
2022-11-01T15:32:01.745Z,17.74
2022-11-01T15:34:30.672Z,17.70
2022-11-01T15:36:59.791Z,17.59
2022-11-01T15:39:29.327Z,17.58
2022-11-01T15:42:07.019Z,17.52
2022-11-01T15:44:33.433Z,17.54
2022-11-01T15:47:02.101Z,17.44
2022-11-01T15:49:36.997Z,17.34
2022-11-01T15:52:15.046Z,17.28
2022-11-01T15:54:55.279Z,17.38
2022-11-01T15:57:33.734Z,17.25
2022-11-01T16:00:07.127Z,17.21
2022-11-01T16:02:43.146Z,17.14
2022-11-01T16:05:12.429Z,17.10
2022-11-01T16:07:40.291Z,17.05
2022-11-01T16:10:09.220Z,17.00
2022-11-01T16:12:38.549Z,16.94
2022-11-01T16:15:23.819Z,16.87
2022-11-01T16:17:52.245Z,16.72
2022-11-01T16:20:37.377Z,16.62
2022-11-01T16:23:06.416Z,16.60
2022-11-01T16:25:38.032Z,16.55
2022-11-01T16:28:09.052Z,16.44
2022-11-01T16:30:36.527Z,16.43
2022-11-01T16:33:20.349Z,16.41
2022-11-01T16:35:49.493Z,16.30
2022-11-01T16:38:35.895Z,16.34
2022-11-01T16:41:13.913Z,16.28
2022-11-01T16:43:40.375Z,16.30
2022-11-01T16:46:06.796Z,16.29
2022-11-01T16:48:47.413Z,16.30
2022-11-01T16:51:14.466Z,16.24
2022-11-01T16:53:40.900Z,16.24
2022-11-01T16:56:34.984Z,16.08
2022-11-01T16:59:04.415Z,16.14
2022-11-01T17:01:35.404Z,15.96
2022-11-01T17:04:02.952Z,15.93
2022-11-01T17:06:32.274Z,15.79
2022-11-01T17:09:01.070Z,15.75
2022-11-01T17:11:27.444Z,15.68
2022-11-01T17:13:53.870Z,15.68
2022-11-01T17:16:23.749Z,15.69
2022-11-01T17:18:54.194Z,15.61
2022-11-01T17:21:21.457Z,15.57
2022-11-01T17:23:48.297Z,15.59
2022-11-01T17:26:16.122Z,15.58
2022-11-01T17:28:45.502Z,15.54
2022-11-01T17:31:14.284Z,15.54
2022-11-01T17:33:40.844Z,15.54
2022-11-01T17:36:13.032Z,15.54
2022-11-01T17:38:40.378Z,15.55
2022-11-01T17:41:10.837Z,15.51
2022-11-01T17:43:37.559Z,15.51
2022-11-01T17:46:14.563Z,15.41
2022-11-01T17:48:41.057Z,15.38
2022-11-01T17:51:07.448Z,15.36
2022-11-01T17:53:34.734Z,15.30
2022-11-01T17:56:01.152Z,15.27
2022-11-01T17:58:27.577Z,15.27
2022-11-01T18:00:54.004Z,15.25
2022-11-01T18:03:20.438Z,15.25
2022-11-01T18:05:46.812Z,15.23
2022-11-01T18:08:17.785Z,15.13
2022-11-01T18:10:54.513Z,15.07
2022-11-01T18:13:49.637Z,15.04
2022-11-01T18:16:24.507Z,14.98
2022-11-01T18:19:34.980Z,14.95
2022-11-01T18:22:19.873Z,14.90
2022-11-01T18:25:02.542Z,14.93
2022-11-01T18:27:37.489Z,14.87
2022-11-01T18:30:18.803Z,14.89
2022-11-01T18:32:50.807Z,14.86
2022-11-01T18:35:24.040Z,14.81
2022-11-01T18:38:23.416Z,14.79
2022-11-01T18:41:00.318Z,14.70
2022-11-01T18:43:37.894Z,14.74
2022-11-01T18:46:27.067Z,14.76
2022-11-01T18:49:00.462Z,14.67
2022-11-01T18:51:33.048Z,14.53
2022-11-01T18:54:26.745Z,14.35
2022-11-01T18:57:04.137Z,14.27
2022-11-01T18:59:35.535Z,14.15
2022-11-01T19:02:11.089Z,14.11
2022-11-01T19:04:39.260Z,14.03
2022-11-01T19:07:19.087Z,13.93
2022-11-01T19:09:54.314Z,13.90
2022-11-01T19:12:29.754Z,13.87
2022-11-01T19:14:59.585Z,13.95
2022-11-01T19:17:28.630Z,14.09
2022-11-01T19:19:56.818Z,14.02
2022-11-01T19:22:37.206Z,13.62
2022-11-01T19:25:15.972Z,13.67
2022-11-01T19:27:43.065Z,13.53
2022-11-01T19:30:23.893Z,13.28
2022-11-01T19:32:51.905Z,13.18
2022-11-01T19:35:22.005Z,13.14
2022-11-01T19:37:52.445Z,13.13
2022-11-01T19:40:28.382Z,13.13
2022-11-01T19:42:57.412Z,12.97
2022-11-01T19:45:29.709Z,12.99
2022-11-01T19:47:57.965Z,13.01
2022-11-01T19:50:31.377Z,13.02
2022-11-01T19:52:58.581Z,12.97
2022-11-01T19:55:36.520Z,12.95
2022-11-01T19:58:22.620Z,12.87
2022-11-01T20:00:49.594Z,12.67
2022-11-01T20:03:37.537Z,12.74
2022-11-01T20:06:11.250Z,12.67
2022-11-01T20:08:37.681Z,12.68
2022-11-01T20:11:04.064Z,12.57
2022-11-01T20:13:30.485Z,12.46
2022-11-01T20:15:56.891Z,12.42
2022-11-01T20:18:23.284Z,12.36
2022-11-01T20:20:49.721Z,12.32
2022-11-01T20:23:31.591Z,12.27
2022-11-01T20:25:58.207Z,12.26
2022-11-01T20:28:24.597Z,12.27
2022-11-01T20:30:51.405Z,12.25
2022-11-01T20:33:18.085Z,12.52
2022-11-01T20:35:44.478Z,12.53
2022-11-01T20:38:10.937Z,12.36
2022-11-01T20:40:37.382Z,12.27
2022-11-01T20:43:04.372Z,12.18
2022-11-01T20:45:31.053Z,12.12
2022-11-01T20:47:57.474Z,12.11
2022-11-01T20:50:23.870Z,12.08
2022-11-01T20:52:50.309Z,12.06
2022-11-01T20:55:17.207Z,12.01
2022-11-01T20:57:43.824Z,12.01
2022-11-01T21:00:13.842Z,11.97
2022-11-01T21:02:40.625Z,11.95
2022-11-01T21:05:18.104Z,11.92
2022-11-01T21:07:47.761Z,11.82
2022-11-01T21:10:37.772Z,11.85
2022-11-01T21:13:21.704Z,11.78
2022-11-01T21:15:48.608Z,11.70
2022-11-01T21:18:14.918Z,11.68
2022-11-01T21:20:44.706Z,11.69
2022-11-01T21:23:26.874Z,11.80
2022-11-01T21:25:57.779Z,11.73
2022-11-01T21:28:34.008Z,11.71
2022-11-01T21:31:17.202Z,11.65
2022-11-01T21:33:58.742Z,11.63
2022-11-01T21:36:36.014Z,11.67
2022-11-01T21:39:10.063Z,11.53
2022-11-01T21:41:42.083Z,11.45
2022-11-01T21:44:20.455Z,11.42
2022-11-01T21:47:08.849Z,11.45
2022-11-01T21:49:36.526Z,11.35
2022-11-01T21:52:05.520Z,11.43
2022-11-01T21:54:34.199Z,11.43
2022-11-01T21:57:01.590Z,11.37
2022-11-01T21:59:28.519Z,11.27
2022-11-01T22:01:56.202Z,11.34
2022-11-01T22:04:24.842Z,11.37
2022-11-01T22:06:55.000Z,11.40
2022-11-01T22:09:21.645Z,11.43
2022-11-01T22:11:48.014Z,11.35
2022-11-01T22:14:14.405Z,11.33
2022-11-01T22:16:40.819Z,11.32
2022-11-01T22:19:07.734Z,11.32
2022-11-01T22:21:34.199Z,11.30
2022-11-01T22:24:01.316Z,11.28
2022-11-01T22:26:27.810Z,11.39
2022-11-01T22:28:54.204Z,11.21
2022-11-01T22:31:21.052Z,11.12
2022-11-01T22:33:51.138Z,11.09
2022-11-01T22:36:23.203Z,11.14
2022-11-01T22:38:50.364Z,11.06
2022-11-01T22:41:27.085Z,11.06
2022-11-01T22:43:59.329Z,11.04
2022-11-01T22:46:30.063Z,11.06
2022-11-01T22:49:01.853Z,11.02
2022-11-01T22:51:40.834Z,10.95
2022-11-01T22:54:41.197Z,10.90
2022-11-01T22:57:21.834Z,10.83
2022-11-01T22:59:52.413Z,10.88
2022-11-01T23:02:29.107Z,10.72
2022-11-01T23:05:20.291Z,10.73
2022-11-01T23:07:54.528Z,10.66
2022-11-01T23:10:27.372Z,10.57
2022-11-01T23:13:34.224Z,10.59
2022-11-01T23:16:03.092Z,10.65
2022-11-01T23:18:32.787Z,10.60
2022-11-01T23:21:02.958Z,10.54
2022-11-01T23:23:29.355Z,10.53
2022-11-01T23:25:59.152Z,10.53
2022-11-01T23:28:26.976Z,10.44
2022-11-01T23:30:54.152Z,10.32
2022-11-01T23:33:22.441Z,10.28
2022-11-01T23:35:53.393Z,10.25
2022-11-01T23:38:38.131Z,10.15
2022-11-01T23:41:04.630Z,10.13
2022-11-01T23:43:35.965Z,10.13
2022-11-01T23:46:02.401Z,10.14
2022-11-01T23:48:29.330Z,10.09
2022-11-01T23:50:56.528Z,10.05
2022-11-01T23:53:31.905Z,10.12
2022-11-01T23:55:59.614Z,10.13
2022-11-01T23:58:31.166Z,9.96
